createdAt,value
2023-02-23T00:00:29.256Z,16.95
2023-02-23T00:02:59.062Z,19.50
2023-02-23T00:05:30.509Z,16.95
2023-02-23T00:07:57.708Z,19.42
2023-02-23T00:10:30.402Z,21.10
2023-02-23T00:13:00.573Z,18.52
2023-02-23T00:15:28.163Z,17.48
2023-02-23T00:17:55.754Z,15.45
2023-02-23T00:20:29.910Z,17.95
2023-02-23T00:22:58.190Z,17.02
2023-02-23T00:25:25.638Z,17.85
2023-02-23T00:27:53.178Z,18.02
2023-02-23T00:30:20.421Z,16.08
2023-02-23T00:32:47.314Z,22.83
2023-02-23T00:35:19.984Z,22.63
2023-02-23T00:37:48.305Z,18.98
2023-02-23T00:40:17.641Z,22.10
2023-02-23T00:42:45.499Z,19.20
2023-02-23T00:45:14.201Z,16.27
2023-02-23T00:47:43.273Z,22.52
2023-02-23T00:50:15.894Z,26.02
2023-02-23T00:52:44.291Z,22.67
2023-02-23T00:55:12.905Z,21.60
2023-02-23T00:57:39.951Z,26.52
2023-02-23T01:00:18.887Z,22.45
2023-02-23T01:02:46.295Z,21.50
2023-02-23T01:05:13.865Z,21.67
2023-02-23T01:07:40.829Z,22.80
2023-02-23T01:10:19.326Z,25.73
2023-02-23T01:12:50.987Z,22.17
2023-02-23T01:15:19.579Z,24.50
2023-02-23T01:17:47.062Z,24.08
2023-02-23T01:20:19.747Z,21.67
2023-02-23T01:22:49.860Z,21.55
2023-02-23T01:25:18.075Z,22.58
2023-02-23T01:27:45.867Z,21.40
2023-02-23T01:30:15.138Z,24.02
2023-02-23T01:32:41.999Z,24.50
2023-02-23T01:35:10.107Z,25.10
2023-02-23T01:37:42.144Z,20.00
2023-02-23T01:40:15.280Z,22.27
2023-02-23T01:42:45.407Z,21.33
2023-02-23T01:45:24.962Z,23.17
2023-02-23T01:47:55.992Z,21.13
2023-02-23T01:50:26.291Z,25.05
2023-02-23T01:52:53.819Z,19.35
2023-02-23T01:55:25.402Z,22.30
2023-02-23T01:58:02.646Z,20.67
2023-02-23T02:00:31.380Z,20.08
2023-02-23T02:03:01.424Z,21.70
2023-02-23T02:05:29.942Z,24.65
2023-02-23T02:07:59.170Z,22.00
2023-02-23T02:10:45.442Z,30.25
2023-02-23T02:13:18.450Z,29.27
2023-02-23T02:16:29.021Z,25.52
2023-02-23T02:19:20.621Z,28.17
2023-02-23T02:22:29.443Z,27.55
2023-02-23T02:25:24.124Z,26.63
2023-02-23T02:28:10.936Z,29.48
2023-02-23T02:31:02.832Z,25.58
2023-02-23T02:33:58.401Z,22.42
2023-02-23T02:36:49.883Z,21.10
2023-02-23T02:40:14.821Z,21.48
2023-02-23T02:43:11.198Z,30.58
2023-02-23T02:45:54.161Z,25.02
2023-02-23T02:48:38.708Z,30.20
2023-02-23T02:51:12.194Z,26.75
2023-02-23T02:53:47.085Z,32.55
2023-02-23T02:56:19.907Z,32.10
2023-02-23T02:58:50.147Z,33.25
2023-02-23T03:01:36.664Z,34.90
2023-02-23T03:07:57.764Z,32.97
2023-02-23T03:11:08.730Z,30.42
2023-02-23T03:14:37.102Z,25.92
2023-02-23T03:20:19.603Z,29.17
2023-02-23T03:23:32.527Z,24.33
2023-02-23T03:26:34.188Z,24.77
2023-02-23T03:29:28.422Z,29.65
2023-02-23T03:32:46.001Z,28.35
2023-02-23T03:35:34.771Z,26.60
2023-02-23T03:38:44.789Z,28.52
2023-02-23T03:41:34.101Z,23.33
2023-02-23T03:44:24.233Z,29.13
2023-02-23T03:47:11.300Z,24.65
2023-02-23T03:49:59.318Z,26.80
2023-02-23T03:52:50.677Z,26.38
2023-02-23T03:55:39.377Z,26.35
2023-02-23T03:58:33.230Z,29.00
2023-02-23T04:01:22.227Z,27.58
2023-02-23T04:04:10.893Z,26.00
2023-02-23T04:07:01.829Z,30.85
2023-02-23T04:09:47.739Z,25.05
2023-02-23T04:12:36.680Z,26.20
2023-02-23T04:15:25.118Z,27.33
2023-02-23T04:17:53.312Z,21.85
2023-02-23T04:20:20.349Z,27.65
2023-02-23T04:22:47.264Z,22.63
2023-02-23T04:25:17.322Z,27.48
2023-02-23T04:27:44.318Z,29.40
2023-02-23T04:30:11.757Z,27.90
2023-02-23T04:32:39.001Z,28.42
2023-02-23T04:35:06.309Z,30.85
2023-02-23T04:37:33.250Z,31.92
2023-02-23T04:40:00.108Z,30.17
2023-02-23T04:42:26.962Z,29.58
2023-02-23T04:44:53.803Z,34.80
2023-02-23T04:47:20.811Z,31.25
2023-02-23T04:49:47.890Z,41.45
2023-02-23T04:52:14.665Z,37.22
2023-02-23T04:54:41.836Z,32.90
2023-02-23T04:57:09.536Z,30.13
2023-02-23T04:59:36.597Z,35.70
2023-02-23T05:02:03.344Z,32.50
2023-02-23T05:04:30.364Z,31.20
2023-02-23T05:06:57.229Z,33.22
2023-02-23T05:09:24.119Z,33.92
2023-02-23T05:11:50.910Z,30.55
2023-02-23T05:14:17.785Z,30.33
2023-02-23T05:16:44.575Z,30.77
2023-02-23T05:19:12.031Z,27.27
2023-02-23T05:21:39.260Z,26.85
2023-02-23T05:24:06.347Z,23.27
2023-02-23T05:26:33.478Z,28.70
2023-02-23T05:29:00.332Z,24.65
2023-02-23T05:31:27.786Z,20.42
2023-02-23T05:33:54.685Z,22.20
2023-02-23T05:36:21.972Z,22.17
2023-02-23T05:38:49.231Z,24.55
2023-02-23T05:41:19.728Z,24.63
2023-02-23T05:43:47.278Z,24.38
2023-02-23T05:46:20.202Z,25.73
2023-02-23T05:48:47.049Z,22.80
2023-02-23T05:51:15.314Z,28.55
2023-02-23T05:53:42.432Z,19.17
2023-02-23T05:56:13.093Z,21.10
2023-02-23T05:58:39.962Z,28.33
2023-02-23T06:01:06.687Z,21.25
2023-02-23T06:03:34.223Z,22.27
2023-02-23T06:06:01.032Z,20.27
2023-02-23T06:08:27.896Z,19.50
2023-02-23T06:10:54.679Z,20.13
2023-02-23T06:13:22.118Z,20.20
2023-02-23T06:15:49.634Z,23.95
2023-02-23T06:18:17.766Z,22.52
2023-02-23T06:20:46.008Z,19.98
2023-02-23T06:23:13.502Z,20.60
2023-02-23T06:25:41.105Z,26.75
2023-02-23T06:28:08.924Z,20.67
2023-02-23T06:30:37.603Z,24.10
2023-02-23T06:33:05.812Z,22.13
2023-02-23T06:35:33.943Z,24.50
2023-02-23T06:38:02.164Z,24.90
2023-02-23T06:40:29.234Z,21.20
2023-02-23T06:42:56.166Z,23.00
2023-02-23T06:45:23.106Z,21.73
2023-02-23T06:47:49.918Z,21.80
2023-02-23T06:50:17.067Z,22.40
2023-02-23T06:52:43.821Z,27.38
2023-02-23T06:55:10.744Z,22.90
2023-02-23T06:57:37.501Z,27.38
2023-02-23T07:00:05.066Z,28.58
2023-02-23T07:02:33.168Z,20.77
2023-02-23T07:05:00.013Z,21.73
2023-02-23T07:07:26.766Z,26.08
2023-02-23T07:09:53.544Z,23.55
2023-02-23T07:12:21.091Z,23.40
2023-02-23T07:14:48.008Z,21.80
2023-02-23T07:17:14.812Z,26.50
2023-02-23T07:19:41.594Z,18.17
2023-02-23T07:22:08.377Z,22.05
2023-02-23T07:24:35.289Z,19.23
2023-02-23T07:27:02.052Z,20.02
2023-02-23T07:29:28.842Z,24.30
2023-02-23T07:31:55.937Z,15.07
2023-02-23T07:34:22.749Z,24.02
2023-02-23T07:36:49.800Z,23.80
2023-02-23T07:39:16.587Z,22.58
2023-02-23T07:41:43.525Z,20.15
2023-02-23T07:44:10.529Z,20.50
2023-02-23T07:46:37.401Z,19.83
2023-02-23T07:49:04.328Z,21.75
2023-02-23T07:51:31.151Z,16.13
2023-02-23T07:54:03.670Z,16.65
2023-02-23T07:56:30.707Z,21.48
2023-02-23T07:58:57.446Z,17.90
2023-02-23T08:01:24.568Z,20.90
2023-02-23T08:03:51.451Z,21.83
2023-02-23T08:06:19.651Z,20.17
2023-02-23T08:08:46.811Z,20.45
2023-02-23T08:11:13.769Z,18.25
2023-02-23T08:13:40.591Z,18.60
2023-02-23T08:16:07.872Z,18.42
2023-02-23T08:18:35.064Z,18.60
2023-02-23T08:21:04.138Z,17.23
2023-02-23T08:23:34.759Z,18.83
2023-02-23T08:26:02.460Z,19.77
2023-02-23T08:28:30.058Z,23.88
2023-02-23T08:30:57.079Z,14.70
2023-02-23T08:33:23.961Z,17.95
2023-02-23T08:35:53.568Z,23.40
2023-02-23T08:38:21.826Z,21.17
2023-02-23T08:40:48.689Z,25.25
2023-02-23T08:43:16.327Z,23.58
2023-02-23T08:45:43.228Z,22.80
2023-02-23T08:48:10.281Z,24.42
2023-02-23T08:50:37.164Z,24.95
2023-02-23T08:53:04.309Z,25.38
2023-02-23T08:55:31.431Z,30.10
2023-02-23T08:57:58.648Z,25.73
2023-02-23T09:00:25.531Z,27.08
2023-02-23T09:02:52.434Z,34.75
2023-02-23T09:05:19.679Z,30.95
2023-02-23T09:07:47.007Z,27.02
2023-02-23T09:10:16.441Z,32.67
2023-02-23T09:12:43.352Z,34.80
2023-02-23T09:15:10.625Z,34.30
2023-02-23T09:17:37.857Z,33.45
2023-02-23T09:20:05.565Z,32.15
2023-02-23T09:22:32.832Z,28.85
2023-02-23T09:24:59.626Z,33.10
2023-02-23T09:27:26.397Z,30.38
2023-02-23T09:29:53.213Z,29.33
2023-02-23T09:32:20.081Z,27.33
2023-02-23T09:34:48.665Z,26.05
2023-02-23T09:37:15.998Z,30.38
2023-02-23T09:39:45.704Z,29.33
2023-02-23T09:42:30.700Z,27.73
2023-02-23T09:45:15.721Z,30.13
2023-02-23T09:48:09.313Z,25.33
2023-02-23T09:50:38.257Z,28.00
2023-02-23T09:53:15.646Z,29.40
2023-02-23T09:55:43.520Z,25.40
2023-02-23T09:58:22.937Z,25.05
2023-02-23T10:01:14.206Z,27.80
2023-02-23T10:03:50.789Z,28.30
2023-02-23T10:06:18.544Z,28.13
2023-02-23T10:08:54.644Z,28.25
2023-02-23T10:14:04.368Z,24.42
2023-02-23T10:16:47.905Z,25.67
2023-02-23T10:19:50.081Z,27.55
2023-02-23T10:22:19.589Z,25.02
2023-02-23T10:24:57.230Z,34.40
2023-02-23T10:27:31.364Z,27.02
2023-02-23T10:30:01.913Z,30.25
2023-02-23T10:32:46.450Z,24.17
2023-02-23T10:35:16.754Z,26.52
2023-02-23T10:37:43.599Z,22.85
2023-02-23T10:40:20.799Z,23.80
2023-02-23T10:42:47.657Z,25.73
2023-02-23T10:45:22.746Z,23.23
2023-02-23T10:48:18.018Z,21.25
2023-02-23T10:50:49.198Z,23.10
2023-02-23T10:53:27.685Z,21.08
2023-02-23T10:56:11.276Z,21.80
2023-02-23T10:58:51.525Z,17.17
2023-02-23T11:01:41.882Z,20.85
2023-02-23T11:04:22.627Z,20.60
2023-02-23T11:06:50.730Z,23.05
2023-02-23T11:09:45.061Z,21.98
2023-02-23T11:12:43.123Z,21.70
2023-02-23T11:15:48.161Z,24.20
2023-02-23T11:18:23.344Z,22.98
2023-02-23T11:20:51.173Z,21.17
2023-02-23T11:23:31.798Z,19.15
2023-02-23T11:26:05.084Z,20.98
2023-02-23T11:28:41.465Z,25.88
2023-02-23T11:31:18.794Z,27.23
2023-02-23T11:33:47.774Z,21.77
2023-02-23T11:36:22.635Z,24.35
2023-02-23T11:39:02.696Z,23.10
2023-02-23T11:41:32.785Z,24.55
2023-02-23T11:44:02.851Z,22.35
2023-02-23T11:46:33.378Z,23.70
2023-02-23T11:49:05.792Z,29.10
2023-02-23T11:51:49.112Z,19.20
2023-02-23T11:54:28.623Z,23.30
2023-02-23T11:56:57.937Z,23.17
2023-02-23T11:59:32.381Z,24.60
2023-02-23T12:02:19.168Z,22.08
2023-02-23T12:04:49.819Z,23.40
2023-02-23T12:07:43.345Z,22.90
2023-02-23T12:10:42.774Z,25.67
2023-02-23T12:13:45.835Z,18.83
2023-02-23T12:16:24.148Z,20.58
2023-02-23T12:19:14.124Z,19.48
2023-02-23T12:21:49.770Z,18.52
2023-02-23T12:24:49.147Z,20.30
2023-02-23T12:27:31.311Z,20.90
2023-02-23T12:30:19.618Z,20.52
2023-02-23T12:33:01.489Z,17.30
2023-02-23T12:35:49.431Z,15.00
2023-02-23T12:38:53.048Z,18.23
2023-02-23T12:41:43.356Z,17.08
2023-02-23T12:44:33.348Z,17.70
2023-02-23T12:47:07.651Z,25.75
2023-02-23T12:49:43.459Z,19.83
2023-02-23T12:52:16.958Z,16.20
2023-02-23T12:54:46.912Z,23.85
2023-02-23T12:57:48.789Z,21.60
2023-02-23T13:00:53.077Z,22.50
2023-02-23T13:03:38.247Z,23.10
2023-02-23T13:06:15.104Z,27.13
2023-02-23T13:09:09.783Z,21.23
2023-02-23T13:12:20.844Z,19.63
2023-02-23T13:15:23.800Z,20.98
2023-02-23T13:18:22.613Z,28.55
2023-02-23T13:21:00.405Z,21.67
2023-02-23T13:23:38.941Z,25.48
2023-02-23T13:26:10.225Z,25.88
2023-02-23T13:28:59.137Z,32.17
2023-02-23T13:31:33.563Z,28.90
2023-02-23T13:34:02.705Z,22.63
2023-02-23T13:36:32.751Z,27.05
2023-02-23T13:39:19.474Z,27.15
2023-02-23T13:41:50.895Z,23.27
2023-02-23T13:44:45.554Z,21.67
2023-02-23T13:47:49.035Z,26.23
2023-02-23T13:50:24.638Z,28.13
2023-02-23T13:52:58.655Z,25.02
2023-02-23T13:55:37.212Z,23.08
2023-02-23T13:58:21.902Z,23.92
2023-02-23T14:01:11.208Z,22.17
2023-02-23T14:04:13.110Z,23.02
2023-02-23T14:06:49.987Z,21.67
2023-02-23T14:09:57.328Z,21.67
2023-02-23T14:12:34.488Z,26.25
2023-02-23T14:15:25.340Z,28.20
2023-02-23T14:18:04.009Z,24.90
2023-02-23T14:20:43.906Z,24.63
2023-02-23T14:23:19.210Z,22.23
2023-02-23T14:25:47.635Z,22.48
2023-02-23T14:28:36.102Z,23.65
2023-02-23T14:31:16.051Z,29.73
2023-02-23T14:33:42.847Z,20.00
2023-02-23T14:36:21.919Z,35.25
2023-02-23T14:38:58.382Z,27.88
2023-02-23T14:41:29.142Z,29.00
2023-02-23T14:44:27.257Z,23.90
2023-02-23T14:47:04.706Z,28.45
2023-02-23T14:49:35.678Z,24.42
2023-02-23T14:52:14.244Z,27.55
2023-02-23T14:54:41.461Z,25.52
2023-02-23T14:57:25.612Z,28.08
2023-02-23T14:59:58.717Z,35.53
2023-02-23T15:02:28.685Z,37.38
2023-02-23T15:04:56.003Z,34.30
2023-02-23T15:07:36.668Z,30.70
2023-02-23T15:10:17.523Z,28.83
2023-02-23T15:12:46.830Z,24.85
2023-02-23T15:15:19.903Z,28.98
2023-02-23T15:17:49.664Z,25.98
2023-02-23T15:20:19.654Z,27.45
2023-02-23T15:22:53.910Z,29.13
2023-02-23T15:25:28.020Z,33.05
2023-02-23T15:27:56.099Z,26.98
2023-02-23T15:30:32.362Z,26.95
2023-02-23T15:33:06.259Z,28.58
2023-02-23T15:35:45.231Z,22.75
2023-02-23T15:38:40.405Z,32.67
2023-02-23T15:41:08.014Z,29.65
2023-02-23T15:43:35.616Z,36.78
2023-02-23T15:46:05.764Z,47.10
2023-02-23T15:48:46.093Z,36.38
2023-02-23T15:51:39.851Z,36.83
2023-02-23T15:54:16.875Z,35.58
2023-02-23T15:56:46.956Z,32.45
2023-02-23T15:59:21.830Z,31.85
2023-02-23T16:01:48.753Z,31.13
2023-02-23T16:04:19.260Z,33.65
2023-02-23T16:07:25.750Z,37.00
2023-02-23T16:09:53.901Z,32.53
2023-02-23T16:12:24.165Z,44.65
2023-02-23T16:15:00.400Z,40.92
2023-02-23T16:17:27.272Z,39.00
2023-02-23T16:20:24.081Z,32.97
2023-02-23T16:22:53.596Z,33.53
2023-02-23T16:25:21.500Z,33.50
2023-02-23T16:27:55.630Z,35.08
2023-02-23T16:30:34.410Z,30.67
2023-02-23T16:33:19.006Z,35.28
2023-02-23T16:35:51.403Z,43.83
2023-02-23T16:38:35.054Z,54.28
2023-02-23T16:41:06.576Z,69.55
2023-02-23T16:43:35.203Z,66.65
2023-02-23T16:46:02.644Z,62.60
2023-02-23T16:48:30.399Z,43.03
2023-02-23T16:50:57.634Z,45.38
2023-02-23T16:53:25.310Z,41.83
2023-02-23T16:56:00.932Z,42.42
2023-02-23T16:58:30.690Z,40.33
2023-02-23T17:00:57.567Z,43.00
2023-02-23T17:03:26.577Z,46.40
2023-02-23T17:05:54.084Z,46.92
2023-02-23T17:08:21.122Z,43.85
2023-02-23T17:10:50.221Z,39.22
2023-02-23T17:13:20.547Z,39.33
2023-02-23T17:15:51.922Z,31.95
2023-02-23T17:20:57.026Z,34.42
2023-02-23T17:23:27.078Z,34.10
2023-02-23T17:25:56.049Z,36.45
2023-02-23T17:28:22.954Z,40.80
2023-02-23T17:30:49.966Z,39.53
2023-02-23T17:33:17.380Z,37.33
2023-02-23T17:35:44.227Z,32.28
2023-02-23T17:38:11.362Z,31.88
2023-02-23T17:40:38.472Z,33.28
2023-02-23T17:43:09.492Z,32.55
2023-02-23T17:45:36.532Z,33.58
2023-02-23T17:48:03.340Z,33.80
2023-02-23T17:50:30.109Z,36.67
2023-02-23T17:52:57.864Z,30.35
2023-02-23T17:55:24.961Z,36.10
2023-02-23T17:57:51.827Z,36.97
2023-02-23T18:00:20.097Z,31.73
2023-02-23T18:02:47.350Z,32.75
2023-02-23T18:05:15.065Z,32.80
2023-02-23T18:07:42.496Z,32.78
2023-02-23T18:10:11.066Z,36.25
2023-02-23T18:12:38.083Z,31.45
2023-02-23T18:15:05.484Z,32.67
2023-02-23T18:17:33.739Z,33.38
2023-02-23T18:20:01.070Z,29.48
2023-02-23T18:22:27.899Z,30.50
2023-02-23T18:24:56.590Z,30.42
2023-02-23T18:27:24.782Z,29.95
2023-02-23T18:29:51.872Z,32.25
2023-02-23T18:32:19.506Z,32.70
2023-02-23T18:34:46.394Z,29.55
2023-02-23T18:37:13.403Z,30.42
2023-02-23T18:39:40.215Z,29.80
2023-02-23T18:42:07.191Z,35.97
2023-02-23T18:44:35.250Z,33.15
2023-02-23T18:47:02.680Z,27.88
2023-02-23T18:49:29.724Z,30.70
2023-02-23T18:51:56.852Z,30.02
2023-02-23T18:54:26.048Z,29.35
2023-02-23T18:56:53.234Z,27.65
2023-02-23T18:59:20.227Z,29.85
2023-02-23T19:01:49.033Z,31.63
2023-02-23T19:04:16.106Z,23.33
2023-02-23T19:06:44.919Z,33.08
2023-02-23T19:09:14.644Z,29.95
2023-02-23T19:11:43.641Z,26.70
2023-02-23T19:14:16.282Z,26.98
2023-02-23T19:16:44.490Z,32.75
2023-02-23T19:19:11.958Z,26.27
2023-02-23T19:21:39.850Z,25.85
2023-02-23T19:24:07.628Z,28.55
2023-02-23T19:26:35.873Z,26.98
2023-02-23T19:29:02.712Z,25.02
2023-02-23T19:31:30.129Z,27.42
2023-02-23T19:33:58.010Z,31.25
2023-02-23T19:36:29.911Z,32.30
2023-02-23T19:39:05.832Z,31.38
2023-02-23T19:41:34.062Z,27.13
2023-02-23T19:44:01.050Z,31.50
2023-02-23T19:46:28.366Z,25.63
2023-02-23T19:48:55.695Z,28.77
2023-02-23T19:51:23.289Z,34.67
2023-02-23T19:53:52.221Z,35.22
2023-02-23T19:56:19.041Z,34.72
2023-02-23T19:58:46.887Z,37.58
2023-02-23T20:01:17.356Z,31.70
2023-02-23T20:03:47.467Z,36.58
2023-02-23T20:06:16.916Z,30.98
2023-02-23T20:08:45.305Z,38.80
2023-02-23T20:11:12.508Z,40.63
2023-02-23T20:13:39.385Z,40.45
2023-02-23T20:16:14.192Z,40.22
2023-02-23T20:18:42.064Z,40.10
2023-02-23T20:21:14.962Z,38.47
2023-02-23T20:23:43.771Z,29.08
2023-02-23T20:26:17.361Z,32.60
2023-02-23T20:28:44.940Z,37.60
2023-02-23T20:31:20.096Z,32.85
2023-02-23T20:33:50.914Z,28.63
2023-02-23T20:36:19.529Z,35.25
2023-02-23T20:38:46.539Z,25.77
2023-02-23T20:41:13.471Z,24.35
2023-02-23T20:43:40.569Z,28.80
2023-02-23T20:46:07.704Z,23.33
2023-02-23T20:48:35.687Z,21.45
2023-02-23T20:51:02.994Z,26.75
2023-02-23T20:53:30.327Z,27.58
2023-02-23T20:55:57.123Z,24.45
2023-02-23T20:58:25.007Z,31.00
2023-02-23T21:00:57.091Z,30.17
2023-02-23T21:03:25.353Z,23.80
2023-02-23T21:05:52.740Z,25.88
2023-02-23T21:08:20.270Z,26.02
2023-02-23T21:10:48.778Z,25.92
2023-02-23T21:13:16.597Z,23.13
2023-02-23T21:15:44.469Z,20.70
2023-02-23T21:18:11.670Z,26.15
2023-02-23T21:20:40.136Z,24.10
2023-02-23T21:23:07.079Z,25.02
2023-02-23T21:25:34.111Z,26.20
2023-02-23T21:28:02.020Z,26.42
2023-02-23T21:30:29.627Z,26.05
2023-02-23T21:32:57.796Z,26.88
2023-02-23T21:35:25.577Z,29.30
2023-02-23T21:37:53.219Z,27.67
2023-02-23T21:40:21.479Z,25.40
2023-02-23T21:42:49.273Z,23.23
2023-02-23T21:45:17.257Z,28.65
2023-02-23T21:47:46.424Z,31.45
2023-02-23T21:50:16.849Z,32.95
2023-02-23T21:52:45.519Z,35.40
2023-02-23T21:55:21.239Z,27.88
2023-02-23T21:57:48.856Z,25.75
2023-02-23T22:00:19.167Z,27.45
2023-02-23T22:02:46.770Z,23.58
2023-02-23T22:05:15.819Z,27.50
2023-02-23T22:07:48.900Z,25.15
2023-02-23T22:10:17.536Z,26.73
2023-02-23T22:12:44.332Z,22.15
2023-02-23T22:15:11.563Z,21.20
2023-02-23T22:17:38.654Z,21.00
2023-02-23T22:20:07.316Z,19.33
2023-02-23T22:22:36.189Z,21.13
2023-02-23T22:25:08.114Z,24.58
2023-02-23T22:27:34.964Z,26.77
2023-02-23T22:30:01.940Z,24.60
2023-02-23T22:32:33.001Z,23.23
2023-02-23T22:35:00.868Z,22.42
2023-02-23T22:37:31.697Z,17.23
2023-02-23T22:40:01.348Z,24.85
2023-02-23T22:42:35.404Z,21.08
2023-02-23T22:45:02.154Z,20.83
2023-02-23T22:47:29.017Z,20.75
2023-02-23T22:49:55.816Z,19.35
2023-02-23T22:52:22.583Z,16.13
2023-02-23T22:54:49.645Z,21.25
2023-02-23T22:57:16.364Z,17.55
2023-02-23T22:59:54.633Z,18.05
2023-02-23T23:02:24.740Z,17.00
2023-02-23T23:04:54.190Z,18.38
2023-02-23T23:07:20.999Z,17.42
2023-02-23T23:09:47.818Z,17.25
2023-02-23T23:12:14.614Z,20.75
2023-02-23T23:14:41.381Z,22.33
2023-02-23T23:17:09.500Z,17.27
2023-02-23T23:19:39.276Z,18.60
2023-02-23T23:22:06.315Z,16.70
2023-02-23T23:24:33.218Z,19.02
2023-02-23T23:27:00.994Z,17.85
2023-02-23T23:29:32.455Z,20.75
2023-02-23T23:32:01.709Z,23.65
2023-02-23T23:34:28.639Z,20.17
2023-02-23T23:36:55.591Z,16.67
2023-02-23T23:39:25.987Z,20.48
2023-02-23T23:41:53.765Z,20.15
2023-02-23T23:44:24.218Z,24.02
2023-02-23T23:46:51.513Z,22.77
2023-02-23T23:49:21.188Z,18.77
2023-02-23T23:51:50.868Z,18.70
2023-02-23T23:54:21.535Z,17.55
2023-02-23T23:56:49.706Z,19.05
2023-02-23T23:59:20.386Z,17.80
